Time;durP1;ratioP1;P1;durP2;ratioP2;P2;SDS_P1;SDS_P2;PMS_P1;PMS_P2;Temp;Humidity;BMP_temperature;BMP_pressure;BME280_temperature;BME280_humidity;BME280_pressure;Samples;Min_cycle;Max_cycle;Signal;HPM_P1;HPM_P2
2022/10/26 00:00:05;;;;;;;9.40;0.90;;;;;;;14.13;100.00;98137.38;4994455;28;20561;-90
2022/10/26 00:02:38;;;;;;;5.63;0.90;;;;;;;14.10;100.00;98127.19;5001420;28;20038;-92
2022/10/26 00:05:07;;;;;;;3.45;0.60;;;;;;;14.11;100.00;98138.63;4967350;28;20041;-90
2022/10/26 00:07:34;;;;;;;5.22;0.70;;;;;;;14.09;100.00;98138.03;4998461;28;20038;-89
2022/10/26 00:10:02;;;;;;;6.93;0.55;;;;;;;14.09;100.00;98148.66;4999238;28;20038;-90
2022/10/26 00:12:30;;;;;;;5.45;0.70;;;;;;;14.06;100.00;98135.84;4966856;28;20038;-89
2022/10/26 00:14:57;;;;;;;4.20;0.50;;;;;;;14.04;100.00;98128.09;4992434;28;20394;-91
2022/10/26 00:17:25;;;;;;;4.07;0.68;;;;;;;13.97;100.00;98137.97;4994270;28;20034;-91
2022/10/26 00:19:54;;;;;;;3.03;0.40;;;;;;;13.87;100.00;98122.59;4999361;28;20041;-91
2022/10/26 00:22:22;;;;;;;5.00;0.70;;;;;;;13.79;100.00;98138.81;4980292;28;20388;-91
2022/10/26 00:24:49;;;;;;;4.53;0.60;;;;;;;13.67;100.00;98141.38;4979598;28;20026;-90
2022/10/26 00:27:17;;;;;;;7.25;0.60;;;;;;;13.56;100.00;98150.91;4997710;28;20038;-91
2022/10/26 00:29:47;;;;;;;5.10;0.55;;;;;;;13.48;100.00;98171.38;4984919;28;20121;-91
2022/10/26 00:32:16;;;;;;;4.35;0.90;;;;;;;13.42;100.00;98164.28;4979925;28;20089;-90
2022/10/26 00:34:44;;;;;;;5.72;0.80;;;;;;;13.35;100.00;98166.19;4959444;28;20450;-90
2022/10/26 00:37:12;;;;;;;3.88;0.70;;;;;;;13.25;100.00;98154.22;4982848;28;20033;-91
2022/10/26 00:39:39;;;;;;;4.90;0.73;;;;;;;13.17;100.00;98153.72;4976973;28;20041;-90
2022/10/26 00:42:13;;;;;;;5.75;0.73;;;;;;;13.15;100.00;98152.06;4988644;28;20038;-90
2022/10/26 00:45:16;;;;;;;11.05;1.08;;;;;;;13.06;100.00;98137.47;4975668;28;20080;-90
2022/10/26 00:47:49;;;;;;;10.70;1.23;;;;;;;13.04;100.00;98118.34;4983541;28;20034;-89
2022/10/26 00:50:40;;;;;;;5.40;0.90;;;;;;;12.98;100.00;98130.59;4959151;28;20042;-91
2022/10/26 00:53:10;;;;;;;3.83;0.40;;;;;;;12.94;100.00;98134.72;4992271;28;20038;-90
2022/10/26 00:55:44;;;;;;;6.00;0.80;;;;;;;12.95;100.00;98133.69;4955356;28;20039;-91
2022/10/26 00:58:13;;;;;;;6.53;0.90;;;;;;;12.90;100.00;98131.69;4969648;28;20041;-90
2022/10/26 01:00:42;;;;;;;7.38;0.88;;;;;;;12.89;100.00;98130.09;4978679;28;20030;-91
2022/10/26 01:03:11;;;;;;;8.38;1.38;;;;;;;12.87;100.00;98110.91;4977769;28;20026;-91
2022/10/26 01:05:43;;;;;;;6.97;1.10;;;;;;;12.84;100.00;98119.31;4995846;28;20045;-90
2022/10/26 01:08:12;;;;;;;8.30;0.88;;;;;;;12.85;100.00;98125.44;4935495;28;20079;-90
2022/10/26 01:10:42;;;;;;;4.93;0.70;;;;;;;12.83;100.00;98107.09;4979950;28;20038;-90
2022/10/26 01:13:13;;;;;;;5.30;0.90;;;;;;;12.83;100.00;98103.63;4962473;28;20034;-90
2022/10/26 01:15:50;;;;;;;6.38;0.93;;;;;;;12.81;100.00;98103.84;4989002;28;20050;-89
2022/10/26 01:18:29;;;;;;;7.70;1.20;;;;;;;12.90;100.00;98117.63;4976460;28;20443;-90
2022/10/26 01:21:32;;;;;;;4.13;0.60;;;;;;;12.96;100.00;98110.66;4974393;28;20120;-89
2022/10/26 01:24:11;;;;;;;6.78;0.95;;;;;;;13.00;100.00;98103.88;4991568;28;20041;-89
2022/10/26 01:26:58;;;;;;;11.77;1.33;;;;;;;13.01;100.00;98101.00;4962785;28;20054;-88
2022/10/26 01:29:45;;;;;;;10.48;1.38;;;;;;;13.02;100.00;98099.16;4962549;28;20041;-90
2022/10/26 01:32:44;;;;;;;14.02;1.42;;;;;;;13.05;100.00;98106.69;4987244;28;20518;-90
2022/10/26 01:35:21;;;;;;;13.30;1.80;;;;;;;13.07;100.00;98095.88;5000320;28;20077;-92
2022/10/26 01:38:31;;;;;;;9.45;1.27;;;;;;;13.07;100.00;98106.47;4963081;28;20038;-92
2022/10/26 01:41:39;;;;;;;8.98;1.35;;;;;;;13.05;100.00;98096.09;5002847;28;20022;-90
2022/10/26 01:44:20;;;;;;;13.50;1.52;;;;;;;13.08;100.00;98092.16;4987606;28;20403;-91
2022/10/26 01:46:51;;;;;;;13.63;1.40;;;;;;;13.07;100.00;98087.91;4971707;28;20045;-93
2022/10/26 01:49:30;;;;;;;17.60;1.70;;;;;;;13.08;100.00;98098.28;4967287;28;20030;-90
2022/10/26 01:51:58;;;;;;;8.90;1.23;;;;;;;13.06;100.00;98113.59;4958516;28;20034;-91
2022/10/26 01:54:28;;;;;;;14.70;1.85;;;;;;;13.07;100.00;98093.22;4990689;28;20061;-90
2022/10/26 01:57:00;;;;;;;12.05;1.77;;;;;;;13.07;100.00;98098.50;4953386;28;20131;-90
2022/10/26 02:00:03;;;;;;;13.02;1.45;;;;;;;13.03;100.00;98096.31;5005136;28;20042;-91
2022/10/26 02:03:17;;;;;;;12.38;1.73;;;;;;;12.98;100.00;98085.53;4978947;28;20054;-91
2022/10/26 02:06:06;;;;;;;9.30;1.42;;;;;;;13.03;100.00;98071.63;4913890;29;20492;-91
2022/10/26 02:08:51;;;;;;;8.15;1.50;;;;;;;13.06;100.00;98079.13;4900033;29;20064;-91
2022/10/26 02:11:42;;;;;;;7.93;1.40;;;;;;;13.07;100.00;98066.69;4977530;28;20044;-90
2022/10/26 02:14:17;;;;;;;6.93;1.13;;;;;;;13.11;100.00;98073.16;4990218;28;20030;-91
2022/10/26 02:16:57;;;;;;;9.40;0.88;;;;;;;13.12;100.00;98054.38;4996041;28;20035;-92
2022/10/26 02:19:46;;;;;;;6.07;0.70;;;;;;;13.12;100.00;98029.72;4990566;28;20035;-92
2022/10/26 02:22:24;;;;;;;5.70;1.10;;;;;;;13.13;100.00;98048.06;4994798;28;20066;-93
2022/10/26 02:24:55;;;;;;;5.85;0.95;;;;;;;13.16;100.00;98052.09;4958992;28;20397;-92
2022/10/26 02:27:27;;;;;;;6.88;1.20;;;;;;;13.21;100.00;98043.47;4961648;28;20073;-92
2022/10/26 02:29:58;;;;;;;5.30;0.70;;;;;;;13.22;100.00;98026.56;4993603;28;20046;-91
2022/10/26 02:32:29;;;;;;;6.07;0.80;;;;;;;13.25;100.00;98007.53;4957060;28;20066;-92
2022/10/26 02:35:01;;;;;;;5.43;0.73;;;;;;;13.30;100.00;97990.97;4987924;28;20140;-90
2022/10/26 02:37:34;;;;;;;5.30;0.95;;;;;;;13.28;100.00;97989.31;4942927;28;20094;-93
2022/10/26 02:40:08;;;;;;;11.25;1.00;;;;;;;13.33;100.00;98003.78;4935648;28;20042;-93
2022/10/26 02:42:39;;;;;;;15.32;1.65;;;;;;;13.33;100.00;97987.84;4960243;28;20106;-92
2022/10/26 02:45:12;;;;;;;18.35;2.05;;;;;;;13.31;100.00;97985.44;4939832;28;20043;-92
2022/10/26 02:47:40;;;;;;;14.27;1.80;;;;;;;13.34;100.00;97976.19;4960853;28;20027;-92
2022/10/26 02:50:10;;;;;;;13.65;1.88;;;;;;;13.34;100.00;97974.38;4947481;28;20058;-92
2022/10/26 02:53:10;;;;;;;12.73;1.95;;;;;;;13.33;100.00;97959.47;4957150;28;20046;-92
2022/10/26 02:55:49;;;;;;;10.90;1.50;;;;;;;13.32;100.00;97986.22;4937389;28;20137;-93
2022/10/26 02:58:24;;;;;;;12.70;2.08;;;;;;;13.30;100.00;97989.09;4968126;28;20085;-93
2022/10/26 03:00:54;;;;;;;9.68;1.58;;;;;;;13.30;100.00;97977.69;4942438;28;20062;-92
2022/10/26 03:03:23;;;;;;;14.30;1.42;;;;;;;13.30;100.00;97985.66;4943570;28;20034;-92
2022/10/26 03:05:51;;;;;;;10.07;1.38;;;;;;;13.28;100.00;97999.13;4987964;28;20074;-93
2022/10/26 03:08:20;;;;;;;9.48;2.03;;;;;;;13.28;100.00;97999.13;4975372;28;20113;-92
2022/10/26 03:10:48;;;;;;;17.27;1.98;;;;;;;13.27;100.00;97989.53;4974934;28;20035;-92
2022/10/26 03:13:16;;;;;;;17.92;1.85;;;;;;;13.27;100.00;97961.19;4992536;28;20087;-92
2022/10/26 03:15:44;;;;;;;16.33;2.28;;;;;;;13.23;100.00;97937.97;4956699;28;20082;-93
2022/10/26 03:18:13;;;;;;;19.08;2.17;;;;;;;13.24;100.00;97951.03;4985369;28;20044;-93
2022/10/26 03:20:44;;;;;;;8.32;1.55;;;;;;;13.22;100.00;97998.16;4942541;28;20554;-92
2022/10/26 03:23:14;;;;;;;13.23;1.77;;;;;;;13.17;100.00;97991.91;4960677;28;20040;-91
2022/10/26 03:25:41;;;;;;;12.75;1.88;;;;;;;13.13;100.00;98015.41;4959800;28;20490;-93
2022/10/26 03:28:10;;;;;;;12.07;1.92;;;;;;;13.12;100.00;98009.28;4969378;28;20162;-93
2022/10/26 03:30:38;;;;;;;8.40;1.23;;;;;;;13.09;100.00;97996.47;4969920;28;20053;-93
2022/10/26 03:33:06;;;;;;;11.50;1.92;;;;;;;13.07;100.00;97995.09;4942315;28;20089;-93
2022/10/26 03:35:34;;;;;;;11.05;1.58;;;;;;;13.06;100.00;98006.75;4963015;28;20096;-92
2022/10/26 03:38:02;;;;;;;13.75;1.90;;;;;;;13.08;100.00;97988.75;4989104;28;20711;-92
2022/10/26 03:40:30;;;;;;;11.20;1.80;;;;;;;13.07;100.00;97973.88;4967142;28;20041;-94
2022/10/26 03:42:59;;;;;;;14.45;1.90;;;;;;;13.05;100.00;97983.88;4969144;28;20030;-94
2022/10/26 03:45:27;;;;;;;14.35;1.92;;;;;;;12.97;100.00;97971.72;4958899;28;20108;-93
2022/10/26 03:47:55;;;;;;;8.75;1.73;;;;;;;12.88;100.00;97987.94;4973714;28;20082;-93
2022/10/26 03:50:23;;;;;;;18.77;2.47;;;;;;;12.86;100.00;97968.81;4991800;28;20231;-93
2022/10/26 03:52:51;;;;;;;12.60;2.08;;;;;;;12.75;100.00;97988.91;4943855;28;20035;-92
2022/10/26 03:55:19;;;;;;;14.45;1.92;;;;;;;12.70;100.00;98002.00;4970560;28;20037;-92
2022/10/26 03:57:47;;;;;;;13.48;2.58;;;;;;;12.68;100.00;97996.09;4976825;28;20049;-92
2022/10/26 04:00:17;;;;;;;13.73;1.90;;;;;;;12.64;100.00;98006.34;4948297;28;20030;-92
2022/10/26 04:02:53;;;;;;;13.40;2.13;;;;;;;12.64;100.00;98010.81;4952903;28;20118;-93
2022/10/26 04:05:22;;;;;;;13.95;1.70;;;;;;;12.56;100.00;98022.50;4954620;28;20042;-91
2022/10/26 04:07:57;;;;;;;17.92;2.63;;;;;;;12.58;100.00;98023.09;4953124;28;20039;-92
2022/10/26 04:10:27;;;;;;;19.80;2.25;;;;;;;12.53;100.00;98015.78;4947394;28;20042;-92
2022/10/26 04:12:57;;;;;;;20.60;3.47;;;;;;;12.50;100.00;98002.19;4991235;28;20038;-91
2022/10/26 04:15:27;;;;;;;24.35;3.10;;;;;;;12.47;100.00;97995.47;4979268;28;20038;-91
2022/10/26 04:18:00;;;;;;;14.27;2.60;;;;;;;12.50;100.00;97989.72;4975499;28;20387;-90
2022/10/26 04:20:30;;;;;;;16.35;2.38;;;;;;;12.47;100.00;97989.38;4960666;28;20425;-91
2022/10/26 04:23:02;;;;;;;13.05;2.33;;;;;;;12.44;100.00;97987.94;4960294;28;20037;-91
2022/10/26 04:25:33;;;;;;;14.70;2.28;;;;;;;12.41;100.00;97988.38;4973967;28;20039;-91
2022/10/26 04:28:02;;;;;;;23.73;2.83;;;;;;;12.40;100.00;97990.25;4940142;28;20030;-90
2022/10/26 04:30:31;;;;;;;21.23;3.10;;;;;;;12.34;100.00;98003.53;4980048;28;20038;-90
2022/10/26 04:32:59;;;;;;;18.60;3.03;;;;;;;12.34;100.00;98000.88;4960538;28;20580;-91
2022/10/26 04:35:28;;;;;;;22.33;3.28;;;;;;;12.32;100.00;98014.34;4951521;28;20038;-90
2022/10/26 04:37:59;;;;;;;22.88;3.53;;;;;;;12.31;100.00;98018.00;4975922;28;20046;-92
2022/10/26 04:40:30;;;;;;;19.33;2.47;;;;;;;12.33;100.00;98023.09;4961513;28;20044;-92
2022/10/26 04:43:00;;;;;;;24.83;3.40;;;;;;;12.30;100.00;98010.28;4957012;28;20077;-92
2022/10/26 04:45:32;;;;;;;21.10;3.00;;;;;;;12.27;100.00;98014.19;4954552;28;20054;-92
2022/10/26 04:48:05;;;;;;;19.58;2.80;;;;;;;12.26;100.00;98021.31;4971298;28;20058;-91
2022/10/26 04:50:36;;;;;;;20.48;3.05;;;;;;;12.25;100.00;98019.69;4958806;28;20034;-91
2022/10/26 04:53:07;;;;;;;24.15;3.92;;;;;;;12.25;100.00;98024.16;4968066;28;20071;-91
2022/10/26 04:55:37;;;;;;;20.27;3.08;;;;;;;12.24;100.00;98019.91;4968804;28;20348;-91
2022/10/26 04:58:08;;;;;;;19.30;3.45;;;;;;;12.20;100.00;98022.16;4960813;28;20023;-91
2022/10/26 05:00:37;;;;;;;22.05;3.08;;;;;;;12.23;100.00;98028.88;4962888;28;20042;-92
2022/10/26 05:03:08;;;;;;;19.95;3.88;;;;;;;12.20;100.00;98038.06;4963738;28;20085;-92
2022/10/26 05:05:36;;;;;;;26.40;4.25;;;;;;;12.19;100.00;98040.91;4967497;28;20045;-92
2022/10/26 05:08:04;;;;;;;20.27;3.10;;;;;;;12.20;100.00;98043.34;4959400;28;20178;-92
2022/10/26 05:10:33;;;;;;;19.60;2.83;;;;;;;12.22;100.00;98032.53;4962364;28;20550;-92
2022/10/26 05:13:01;;;;;;;15.77;2.60;;;;;;;12.24;100.00;98041.91;4963049;28;20041;-91
2022/10/26 05:15:28;;;;;;;20.52;3.47;;;;;;;12.23;100.00;98053.50;4978180;28;20041;-91
2022/10/26 05:18:07;;;;;;;17.35;2.70;;;;;;;12.27;100.00;98064.50;4963079;28;20042;-91
2022/10/26 05:20:38;;;;;;;16.77;2.47;;;;;;;12.30;100.00;98063.25;4975686;28;20038;-91
2022/10/26 05:23:12;;;;;;;24.15;3.33;;;;;;;12.31;100.00;98068.34;4959922;28;20100;-92
2022/10/26 05:25:42;;;;;;;16.63;2.50;;;;;;;12.32;100.00;98051.44;4950363;28;20040;-92
2022/10/26 05:28:13;;;;;;;17.25;2.50;;;;;;;12.35;100.00;98069.53;4978412;28;20084;-92
2022/10/26 05:30:43;;;;;;;21.50;3.42;;;;;;;12.39;100.00;98067.28;4957429;28;20119;-92
2022/10/26 05:33:14;;;;;;;16.90;3.25;;;;;;;12.44;100.00;98072.72;4963740;28;20042;-91
2022/10/26 05:35:43;;;;;;;20.90;3.15;;;;;;;12.42;100.00;98068.69;4987566;28;20034;-91
2022/10/26 05:38:18;;;;;;;22.95;3.15;;;;;;;12.46;100.00;98077.81;4958380;28;20034;-91
2022/10/26 05:40:52;;;;;;;23.23;3.00;;;;;;;12.40;100.00;98069.72;4975309;28;20030;-92
2022/10/26 05:43:23;;;;;;;18.30;3.60;;;;;;;12.39;100.00;98057.47;4962042;28;20112;-91
2022/10/26 05:45:51;;;;;;;18.55;3.30;;;;;;;12.38;100.00;98055.88;4977009;28;20030;-91
2022/10/26 05:48:20;;;;;;;19.45;3.17;;;;;;;12.36;100.00;98065.06;4967307;28;20045;-91
2022/10/26 05:50:48;;;;;;;22.48;3.30;;;;;;;12.33;100.00;98062.81;4978582;28;20039;-92
2022/10/26 05:53:17;;;;;;;19.45;3.03;;;;;;;12.32;100.00;98067.31;4974740;28;20491;-91
2022/10/26 05:55:47;;;;;;;21.73;3.63;;;;;;;12.34;100.00;98086.44;4962742;28;20499;-92
2022/10/26 05:58:15;;;;;;;17.17;3.30;;;;;;;12.32;100.00;98085.88;4975961;28;20486;-92
2022/10/26 06:00:55;;;;;;;20.33;3.80;;;;;;;12.28;100.00;98085.47;4974421;28;20380;-91
2022/10/26 06:03:47;;;;;;;23.52;3.03;;;;;;;12.31;100.00;98094.81;4972753;28;20084;-91
2022/10/26 06:06:16;;;;;;;13.57;2.50;;;;;;;12.28;100.00;98093.41;4959915;28;20037;-91
2022/10/26 06:08:44;;;;;;;21.67;3.08;;;;;;;12.25;100.00;98087.72;4953104;28;20120;-91
2022/10/26 06:11:12;;;;;;;17.58;2.55;;;;;;;12.21;100.00;98087.38;4940100;28;20034;-91
2022/10/26 06:13:40;;;;;;;14.18;2.35;;;;;;;12.18;100.00;98110.81;4977530;28;20045;-91
2022/10/26 06:16:27;;;;;;;14.70;2.13;;;;;;;12.18;100.00;98113.47;4944309;28;20041;-91
2022/10/26 06:19:03;;;;;;;;;;;;;;;12.00;100.00;98133.47;4978176;28;20491;-91
2022/10/26 06:22:10;;;;;;;18.38;2.50;;;;;;;12.03;100.00;98143.63;4944797;28;19956;-91
2022/10/26 06:25:18;;;;;;;11.68;3.05;;;;;;;11.98;100.00;98161.97;4936757;28;20039;-92
2022/10/26 06:27:50;;;;;;;13.32;2.03;;;;;;;11.96;100.00;98162.19;4960757;28;20161;-91
2022/10/26 06:30:19;;;;;;;10.18;2.30;;;;;;;11.90;100.00;98166.50;4979494;28;20036;-93
2022/10/26 06:32:52;;;;;;;17.33;2.78;;;;;;;11.86;100.00;98175.91;4948273;28;20045;-91
2022/10/26 06:35:25;;;;;;;15.32;2.00;;;;;;;11.83;100.00;98180.78;4975041;28;20038;-91
2022/10/26 06:37:56;;;;;;;20.40;2.28;;;;;;;11.81;100.00;98193.41;4974665;28;20453;-91
2022/10/26 06:40:26;;;;;;;19.65;2.92;;;;;;;11.79;100.00;98201.56;4995592;28;20184;-90
2022/10/26 06:42:55;;;;;;;15.77;1.88;;;;;;;11.75;100.00;98214.38;4979038;28;20038;-90
2022/10/26 06:45:23;;;;;;;16.08;2.05;;;;;;;11.70;100.00;98216.84;4973200;28;20047;-91
2022/10/26 06:48:01;;;;;;;14.27;1.92;;;;;;;11.70;100.00;98219.50;4993411;28;20084;-91
2022/10/26 06:50:54;;;;;;;15.57;2.28;;;;;;;11.70;100.00;98224.78;4989077;28;20050;-91
2022/10/26 06:53:44;;;;;;;16.48;2.28;;;;;;;11.72;100.00;98237.81;4995565;28;20061;-91
2022/10/26 06:56:14;;;;;;;18.85;3.13;;;;;;;11.70;100.00;98235.38;4962782;28;20141;-91
2022/10/26 06:58:45;;;;;;;21.58;2.22;;;;;;;11.70;100.00;98250.44;5011358;28;20038;-91
2022/10/26 07:01:16;;;;;;;16.98;2.25;;;;;;;11.66;100.00;98237.63;4978650;28;20100;-90
2022/10/26 07:03:46;;;;;;;24.05;3.00;;;;;;;11.64;100.00;98249.44;4982081;28;20035;-91
2022/10/26 07:06:16;;;;;;;20.70;2.63;;;;;;;11.60;100.00;98256.16;4971412;28;20042;-89
2022/10/26 07:08:44;;;;;;;22.98;2.30;;;;;;;11.58;100.00;98255.56;4973591;28;20223;-90
2022/10/26 07:11:12;;;;;;;25.77;3.33;;;;;;;11.57;100.00;98261.84;4986513;28;20034;-91
2022/10/26 07:13:42;;;;;;;16.65;2.53;;;;;;;11.56;100.00;98254.94;4972028;28;20041;-92
2022/10/26 07:16:11;;;;;;;18.92;2.60;;;;;;;11.54;100.00;98260.44;4962214;28;20034;-90
2022/10/26 07:18:38;;;;;;;20.38;2.90;;;;;;;11.53;100.00;98264.91;4988783;28;20399;-88
2022/10/26 07:21:07;;;;;;;16.20;3.15;;;;;;;11.51;100.00;98266.97;4977720;28;20030;-93
2022/10/26 07:23:35;;;;;;;24.25;3.20;;;;;;;11.50;100.00;98278.53;4983527;28;20030;-90
2022/10/26 07:26:04;;;;;;;23.55;3.42;;;;;;;11.49;100.00;98282.22;4977914;28;20137;-90
2022/10/26 07:28:32;;;;;;;18.85;3.35;;;;;;;11.49;100.00;98298.09;4996331;28;20056;-90
2022/10/26 07:31:01;;;;;;;17.77;2.25;;;;;;;11.51;100.00;98301.34;4994288;28;20490;-90
2022/10/26 07:33:29;;;;;;;15.40;2.40;;;;;;;11.47;100.00;98307.22;4978652;28;20045;-90
2022/10/26 07:35:59;;;;;;;17.45;2.78;;;;;;;11.51;100.00;98305.81;4965897;28;20046;-90
2022/10/26 07:38:29;;;;;;;18.83;3.83;;;;;;;11.49;100.00;98298.09;4959340;28;20043;-90
2022/10/26 07:40:59;;;;;;;11.40;2.33;;;;;;;11.52;100.00;98305.63;4956446;28;20495;-91
2022/10/26 07:43:29;;;;;;;13.35;1.63;;;;;;;11.52;100.00;98316.19;4955037;28;20062;-92
2022/10/26 07:45:59;;;;;;;11.77;1.98;;;;;;;11.56;100.00;98321.09;4952255;28;20383;-90
2022/10/26 07:48:29;;;;;;;13.10;1.63;;;;;;;11.58;100.00;98332.28;4981028;28;20049;-91
2022/10/26 07:51:01;;;;;;;16.30;2.00;;;;;;;11.60;100.00;98343.47;4964410;28;20159;-91
2022/10/26 07:53:31;;;;;;;16.25;2.25;;;;;;;11.61;100.00;98348.53;4963924;28;20037;-90
2022/10/26 07:56:01;;;;;;;14.88;2.25;;;;;;;11.64;100.00;98355.28;4964740;28;20030;-91
2022/10/26 07:58:30;;;;;;;15.13;2.33;;;;;;;11.67;100.00;98370.75;4991899;28;20439;-91
2022/10/26 08:00:57;;;;;;;13.88;2.45;;;;;;;11.65;100.00;98368.31;4978324;28;20030;-90
2022/10/26 08:03:27;;;;;;;23.45;2.50;;;;;;;11.66;100.00;98375.22;4976522;28;20502;-91
2022/10/26 08:05:56;;;;;;;8.88;1.58;;;;;;;11.71;100.00;98384.38;4983166;28;20104;-91
2022/10/26 08:08:24;;;;;;;11.52;1.70;;;;;;;11.72;100.00;98386.81;4981284;28;20030;-91
2022/10/26 08:10:53;;;;;;;11.48;2.22;;;;;;;11.69;100.00;98395.16;4963653;28;20039;-90
2022/10/26 08:13:21;;;;;;;13.40;1.77;;;;;;;11.71;100.00;98403.72;4978264;28;20034;-91
2022/10/26 08:15:49;;;;;;;13.70;2.10;;;;;;;11.74;100.00;98421.84;4967860;28;20085;-91
2022/10/26 08:18:17;;;;;;;19.00;2.90;;;;;;;11.72;100.00;98421.22;4981739;28;20038;-91
2022/10/26 08:20:45;;;;;;;13.93;2.38;;;;;;;11.77;100.00;98431.19;4960936;28;20030;-90
2022/10/26 08:23:13;;;;;;;13.13;1.70;;;;;;;11.78;100.00;98432.84;4996282;28;20042;-91
2022/10/26 08:25:42;;;;;;;13.18;2.50;;;;;;;11.77;100.00;98437.31;4978113;28;20038;-89
2022/10/26 08:28:10;;;;;;;12.90;1.90;;;;;;;11.79;100.00;98456.47;4937753;28;20391;-91
2022/10/26 08:30:37;;;;;;;15.63;2.05;;;;;;;11.81;100.00;98456.25;4959474;28;20157;-90
2022/10/26 08:33:07;;;;;;;12.32;1.58;;;;;;;11.83;100.00;98453.41;4956007;28;20113;-90
2022/10/26 08:35:37;;;;;;;9.25;1.70;;;;;;;11.87;100.00;98459.94;4945801;28;20027;-90
2022/10/26 08:38:06;;;;;;;13.40;1.95;;;;;;;11.86;100.00;98461.78;4981537;28;20034;-91
2022/10/26 08:40:38;;;;;;;16.17;1.67;;;;;;;11.85;100.00;98460.13;4971986;28;20038;-91
2022/10/26 08:43:33;;;;;;;13.63;1.52;;;;;;;11.80;100.00;98478.47;4981406;28;20034;-90
2022/10/26 08:46:25;;;;;;;11.88;1.90;;;;;;;11.79;100.00;98482.09;4984048;28;20049;-91
2022/10/26 08:49:08;;;;;;;16.65;1.80;;;;;;;11.75;100.00;98494.13;4977612;28;20042;-90
2022/10/26 08:51:41;;;;;;;12.65;2.15;;;;;;;11.74;100.00;98498.59;5003354;28;20504;-91
2022/10/26 08:54:20;;;;;;;17.55;2.33;;;;;;;11.77;100.00;98503.47;4987045;28;20030;-91
2022/10/26 08:56:55;;;;;;;13.52;1.90;;;;;;;11.80;100.00;98512.88;4963437;28;20040;-92
2022/10/26 08:59:54;;;;;;;14.00;2.25;;;;;;;11.84;100.00;98507.97;4991528;28;20144;-92
2022/10/26 09:02:23;;;;;;;14.07;2.33;;;;;;;11.90;100.00;98515.94;4989914;28;20026;-92
2022/10/26 09:04:52;;;;;;;12.85;1.73;;;;;;;11.94;100.00;98505.78;4960213;28;20089;-92
2022/10/26 09:07:51;;;;;;;16.27;2.00;;;;;;;11.97;100.00;98528.38;4993492;28;20046;-91
2022/10/26 09:10:37;;;;;;;14.70;1.60;;;;;;;12.00;100.00;98534.09;4977387;28;20046;-90
2022/10/26 09:13:25;;;;;;;13.32;2.33;;;;;;;12.02;100.00;98544.47;4991406;28;20454;-90
2022/10/26 09:15:54;;;;;;;8.23;1.77;;;;;;;12.03;100.00;98546.09;4979051;28;20061;-89
2022/10/26 09:18:36;;;;;;;14.50;1.85;;;;;;;12.12;100.00;98552.06;4964553;28;20033;-92
2022/10/26 09:21:06;;;;;;;14.75;2.30;;;;;;;12.18;100.00;98563.69;4975076;28;20026;-91
2022/10/26 09:23:51;;;;;;;15.25;2.28;;;;;;;12.25;100.00;98569.78;4991688;28;20426;-91
2022/10/26 09:26:43;;;;;;;15.05;2.40;;;;;;;12.30;100.00;98574.47;4987494;28;20054;-91
2022/10/26 09:29:14;;;;;;;15.32;2.83;;;;;;;12.37;100.00;98575.31;4977545;28;20029;-91
2022/10/26 09:31:50;;;;;;;14.18;2.15;;;;;;;12.43;100.00;98576.31;4964446;28;20042;-93
2022/10/26 09:34:36;;;;;;;13.57;2.30;;;;;;;12.50;100.00;98593.06;4993550;28;20145;-93
2022/10/26 09:37:45;;;;;;;12.52;1.95;;;;;;;12.58;100.00;98587.53;4963168;28;20133;-91
2022/10/26 09:40:24;;;;;;;17.17;2.15;;;;;;;12.71;100.00;98589.38;4978038;28;20050;-92
2022/10/26 09:43:01;;;;;;;13.98;1.88;;;;;;;12.93;100.00;98605.09;4972352;28;20033;-91
2022/10/26 09:45:35;;;;;;;11.75;1.90;;;;;;;13.02;100.00;98611.81;4976130;28;20553;-92
2022/10/26 09:48:13;;;;;;;14.07;2.70;;;;;;;13.11;100.00;98604.44;4977120;28;20137;-91
2022/10/26 09:50:48;;;;;;;13.02;2.20;;;;;;;13.13;100.00;98609.53;4980651;28;20060;-92
2022/10/26 09:53:17;;;;;;;10.15;1.88;;;;;;;13.25;100.00;98617.69;4962472;28;20034;-90
2022/10/26 09:55:48;;;;;;;12.90;2.40;;;;;;;13.44;100.00;98620.50;4977933;28;20529;-92
2022/10/26 09:58:28;;;;;;;19.50;2.83;;;;;;;13.57;100.00;98631.09;4964437;28;20061;-91
2022/10/26 10:00:57;;;;;;;12.55;2.20;;;;;;;13.62;100.00;98638.44;4990723;28;20069;-92
2022/10/26 10:03:28;;;;;;;11.85;1.73;;;;;;;13.65;100.00;98651.28;4952535;28;20129;-92
2022/10/26 10:06:16;;;;;;;13.15;2.05;;;;;;;13.64;100.00;98649.69;4949289;28;20034;-91
2022/10/26 10:09:13;;;;;;;14.00;2.15;;;;;;;13.64;100.00;98663.78;4992301;28;20089;-91
2022/10/26 10:11:44;;;;;;;8.52;2.47;;;;;;;13.64;100.00;98662.94;4971649;28;20034;-91
2022/10/26 10:14:16;;;;;;;12.93;2.33;;;;;;;13.65;100.00;98651.28;4975376;28;20038;-91
2022/10/26 10:16:56;;;;;;;12.70;2.20;;;;;;;13.59;100.00;98662.75;4958621;28;20046;-91
2022/10/26 10:19:31;;;;;;;14.45;2.55;;;;;;;13.57;100.00;98665.63;4961476;28;20053;-91
2022/10/26 10:22:00;;;;;;;17.48;2.33;;;;;;;13.58;100.00;98683.19;4992016;28;20022;-91
2022/10/26 10:24:31;;;;;;;13.23;2.00;;;;;;;13.61;100.00;98695.22;4964997;28;20470;-91
2022/10/26 10:27:16;;;;;;;14.32;2.15;;;;;;;13.62;100.00;98704.81;4963837;28;20041;-91
2022/10/26 10:29:56;;;;;;;10.80;1.70;;;;;;;13.64;100.00;98702.78;4983078;28;20061;-89
2022/10/26 10:32:30;;;;;;;9.52;1.58;;;;;;;13.63;100.00;98709.91;4978515;28;20044;-91
2022/10/26 10:35:00;;;;;;;16.77;3.13;;;;;;;13.68;100.00;98711.94;4961428;28;20042;-91
2022/10/26 10:37:43;;;;;;;15.40;2.15;;;;;;;13.77;100.00;98720.50;4992099;28;20058;-92
2022/10/26 10:40:25;;;;;;;9.48;1.63;;;;;;;13.80;100.00;98724.59;4990718;28;20038;-91
2022/10/26 10:43:03;;;;;;;14.05;1.70;;;;;;;13.89;100.00;98736.59;4975351;28;20037;-91
2022/10/26 10:45:33;;;;;;;12.35;1.45;;;;;;;13.95;100.00;98740.28;4974125;28;20038;-91
2022/10/26 10:48:15;;;;;;;11.02;1.80;;;;;;;13.98;100.00;98745.97;4956890;28;20038;-91
2022/10/26 10:50:58;;;;;;;11.88;1.85;;;;;;;13.98;100.00;98743.31;5001149;28;20400;-91
2022/10/26 10:53:47;;;;;;;11.40;1.42;;;;;;;14.05;100.00;98753.13;4994532;28;20038;-91
2022/10/26 10:56:39;;;;;;;12.13;2.03;;;;;;;14.11;100.00;98750.44;4988876;28;20039;-91
2022/10/26 10:59:34;;;;;;;14.85;2.20;;;;;;;14.12;100.00;98745.94;4974214;28;20371;-91
2022/10/26 11:02:16;;;;;;;15.88;2.03;;;;;;;14.16;100.00;98755.13;4975406;28;20549;-91
2022/10/26 11:05:08;;;;;;;7.40;1.55;;;;;;;14.11;100.00;98762.94;4977563;28;20041;-91
2022/10/26 11:07:51;;;;;;;15.98;2.05;;;;;;;14.07;100.00;98767.00;4990599;28;20079;-91
2022/10/26 11:10:22;;;;;;;22.40;3.35;;;;;;;13.94;100.00;98774.00;4978075;28;20041;-91
2022/10/26 11:13:06;;;;;;;12.45;1.90;;;;;;;13.79;100.00;98786.69;4976937;28;20029;-92
2022/10/26 11:15:39;;;;;;;13.80;2.17;;;;;;;13.69;100.00;98801.22;4957070;28;20037;-90
2022/10/26 11:18:17;;;;;;;13.63;2.10;;;;;;;13.68;100.00;98804.06;4959046;28;20045;-91
2022/10/26 11:20:52;;;;;;;11.57;2.33;;;;;;;13.59;100.00;98800.78;4993078;28;20033;-92
2022/10/26 11:23:48;;;;;;;18.77;2.25;;;;;;;13.46;100.00;98814.84;4992665;28;20034;-90
2022/10/26 11:26:24;;;;;;;13.27;2.20;;;;;;;13.34;100.00;98812.00;4946039;28;20054;-90
2022/10/26 11:29:07;;;;;;;;;;;;;;;13.09;100.00;98831.94;4969689;28;20050;-91
2022/10/26 11:31:42;;;;;;;13.15;2.20;;;;;;;12.95;100.00;98825.00;4984205;28;20020;-88
2022/10/26 11:34:33;;;;;;;14.50;2.63;;;;;;;12.76;100.00;98819.41;4975376;28;20042;-89
2022/10/26 11:37:15;;;;;;;16.52;2.42;;;;;;;12.66;100.00;98817.16;4976668;28;20046;-88
2022/10/26 11:40:14;;;;;;;16.92;1.80;;;;;;;12.53;100.00;98836.47;4991426;28;20046;-90
2022/10/26 11:43:23;;;;;;;14.73;2.25;;;;;;;12.42;100.00;98826.41;4984539;28;20041;-87
2022/10/26 11:46:15;;;;;;;13.63;2.00;;;;;;;12.37;100.00;98838.44;4974383;28;20061;-90
2022/10/26 11:49:27;;;;;;;10.38;1.50;;;;;;;12.34;100.00;98828.19;5009897;28;20029;-90
2022/10/26 11:52:23;;;;;;;11.52;1.65;;;;;;;12.36;100.00;98836.78;4881791;29;20127;-88
2022/10/26 11:55:01;;;;;;;14.95;1.60;;;;;;;12.36;100.00;98838.63;4874250;29;20081;-90